Time;durP1;ratioP1;P1;durP2;ratioP2;P2;SDS_P1;SDS_P2;PMS_P1;PMS_P2;Temp;Humidity;BMP_temperature;BMP_pressure;BME280_temperature;BME280_humidity;BME280_pressure;Samples;Min_cycle;Max_cycle;Signal;HPM_P1;HPM_P2
2023/04/05 00:01:48;;;;;;;3.13;3.03;;;;;;;;;;5037939;28;20049;-94
2023/04/05 00:04:19;;;;;;;2.78;2.67;;;;;;;;;;5038622;28;20095;-95
2023/04/05 00:06:49;;;;;;;2.95;2.85;;;;;;;;;;5037814;28;20052;-96
2023/04/05 00:09:17;;;;;;;7.55;7.07;;;;;;;;;;5038579;28;20141;-94
2023/04/05 00:11:44;;;;;;;3.38;3.17;;;;;;;;;;5039902;28;20053;-95
2023/04/05 00:14:11;;;;;;;3.85;3.65;;;;;;;;;;5038389;28;20057;-95
2023/04/05 00:16:37;;;;;;;3.15;2.97;;;;;;;;;;5039158;28;20468;-96
2023/04/05 00:19:04;;;;;;;1.77;1.67;;;;;;;;;;5037368;28;20083;-94
2023/04/05 00:21:32;;;;;;;2.80;2.70;;;;;;;;;;5038557;28;20140;-95
2023/04/05 00:24:00;;;;;;;2.63;2.53;;;;;;;;;;5037167;28;20085;-94
2023/04/05 00:26:26;;;;;;;2.78;2.67;;;;;;;;;;5037445;28;20468;-96
2023/04/05 00:28:53;;;;;;;1.88;1.77;;;;;;;;;;5028864;28;20061;-95
2023/04/05 00:31:20;;;;;;;2.85;2.75;;;;;;;;;;5017626;28;20493;-95
2023/04/05 00:33:46;;;;;;;3.50;3.17;;;;;;;;;;5018639;28;20046;-95
2023/04/05 00:36:14;;;;;;;2.53;2.40;;;;;;;;;;5017645;28;20100;-95
2023/04/05 00:38:41;;;;;;;4.20;3.95;;;;;;;;;;5017713;28;20054;-96
2023/04/05 00:41:09;;;;;;;3.72;3.53;;;;;;;;;;5017263;28;20050;-95
2023/04/05 00:43:35;;;;;;;2.40;2.30;;;;;;;;;;5017573;28;20050;-95
2023/04/05 00:46:02;;;;;;;4.50;4.30;;;;;;;;;;5018061;28;20054;-96
2023/04/05 00:48:29;;;;;;;3.17;3.05;;;;;;;;;;5018741;28;20480;-95
2023/04/05 00:50:56;;;;;;;2.85;2.67;;;;;;;;;;5017536;28;20050;-95
2023/04/05 00:53:23;;;;;;;3.10;2.97;;;;;;;;;;5016179;28;20104;-95
2023/04/05 00:55:52;;;;;;;3.92;3.72;;;;;;;;;;5016935;28;20100;-95
2023/04/05 00:58:21;;;;;;;3.55;3.35;;;;;;;;;;5019945;28;20046;-96
2023/04/05 01:00:52;;;;;;;2.92;2.72;;;;;;;;;;5038228;28;20056;-96
2023/04/05 01:03:19;;;;;;;3.67;3.47;;;;;;;;;;5037016;28;20146;-95
2023/04/05 01:05:48;;;;;;;2.55;2.45;;;;;;;;;;5038122;28;20049;-94
2023/04/05 01:08:18;;;;;;;3.22;3.05;;;;;;;;;;5037314;28;20489;-94
2023/04/05 01:10:47;;;;;;;2.67;2.47;;;;;;;;;;5037880;28;20053;-94
2023/04/05 01:13:15;;;;;;;2.60;2.50;;;;;;;;;;5039762;28;20046;-94
2023/04/05 01:15:43;;;;;;;2.65;2.55;;;;;;;;;;5038012;28;20049;-95
2023/04/05 01:18:10;;;;;;;2.22;2.13;;;;;;;;;;5037485;28;20464;-96
2023/04/05 01:20:39;;;;;;;2.95;2.85;;;;;;;;;;5019072;28;20058;-94
2023/04/05 01:23:13;;;;;;;5.50;5.00;;;;;;;;;;5019271;28;20137;-95
2023/04/05 01:25:58;;;;;;;4.38;3.65;;;;;;;;;;5025620;28;20081;-94
2023/04/05 01:28:43;;;;;;;3.83;3.63;;;;;;;;;;5024253;28;20041;-95
2023/04/05 01:31:14;;;;;;;4.10;3.80;;;;;;;;;;5028062;28;20057;-95
2023/04/05 01:33:44;;;;;;;2.70;2.60;;;;;;;;;;5038410;28;20046;-94
2023/04/05 01:36:15;;;;;;;3.25;3.05;;;;;;;;;;5038066;28;20057;-95
2023/04/05 01:38:45;;;;;;;3.33;3.05;;;;;;;;;;5037809;28;20049;-94
2023/04/05 01:41:11;;;;;;;2.33;2.22;;;;;;;;;;5037880;28;20049;-96
2023/04/05 01:43:38;;;;;;;3.08;2.88;;;;;;;;;;5038930;28;20046;-95
2023/04/05 01:46:05;;;;;;;3.15;2.95;;;;;;;;;;5038757;28;20076;-95
2023/04/05 01:48:33;;;;;;;4.57;2.78;;;;;;;;;;5038885;28;20103;-95
2023/04/05 01:50:59;;;;;;;8.02;7.35;;;;;;;;;;5040363;28;20079;-95
2023/04/05 01:53:26;;;;;;;2.65;2.55;;;;;;;;;;5040596;28;20045;-95
2023/04/05 01:55:52;;;;;;;3.47;3.38;;;;;;;;;;5035956;28;20111;-95
2023/04/05 01:58:19;;;;;;;4.07;3.88;;;;;;;;;;5036673;28;20076;-94
2023/04/05 02:00:46;;;;;;;3.75;3.55;;;;;;;;;;5035802;28;20045;-96
2023/04/05 02:03:12;;;;;;;2.30;2.20;;;;;;;;;;5035942;28;20416;-95
2023/04/05 02:05:42;;;;;;;3.22;3.03;;;;;;;;;;5038964;28;20068;-96
2023/04/05 02:08:08;;;;;;;4.85;4.65;;;;;;;;;;5038066;28;20126;-96
2023/04/05 02:10:35;;;;;;;3.40;3.30;;;;;;;;;;5036481;28;20057;-94
2023/04/05 02:13:01;;;;;;;2.10;2.00;;;;;;;;;;5035892;28;20057;-95
2023/04/05 02:15:28;;;;;;;3.97;3.70;;;;;;;;;;5036875;28;20103;-96
2023/04/05 02:17:55;;;;;;;5.10;4.90;;;;;;;;;;5039651;28;20561;-96
2023/04/05 02:20:22;;;;;;;3.38;3.20;;;;;;;;;;5021286;28;20058;-96
2023/04/05 02:22:50;;;;;;;2.33;2.22;;;;;;;;;;5016092;28;20065;-94
2023/04/05 02:25:17;;;;;;;2.47;2.38;;;;;;;;;;5015697;28;20062;-95
2023/04/05 02:27:43;;;;;;;4.93;4.72;;;;;;;;;;5015768;28;20127;-95
2023/04/05 02:30:12;;;;;;;3.53;3.33;;;;;;;;;;5016306;28;20072;-95
2023/04/05 02:32:41;;;;;;;2.72;2.60;;;;;;;;;;5017364;28;20437;-95
2023/04/05 02:35:08;;;;;;;3.78;3.58;;;;;;;;;;5019038;28;20046;-96
2023/04/05 02:37:35;;;;;;;2.95;2.67;;;;;;;;;;5016177;28;20121;-96
2023/04/05 02:40:06;;;;;;;2.60;2.50;;;;;;;;;;5015365;28;20085;-95
2023/04/05 02:42:33;;;;;;;3.25;3.13;;;;;;;;;;5015465;28;20061;-95
2023/04/05 02:45:00;;;;;;;2.30;2.20;;;;;;;;;;5015375;28;20093;-96
2023/04/05 02:47:26;;;;;;;3.40;3.30;;;;;;;;;;5016893;28;20113;-96
2023/04/05 02:49:53;;;;;;;3.10;2.92;;;;;;;;;;5016586;28;20575;-94
2023/04/05 02:52:20;;;;;;;3.50;3.30;;;;;;;;;;5016762;28;20112;-94
2023/04/05 02:54:46;;;;;;;3.58;3.38;;;;;;;;;;5016303;28;20054;-94
2023/04/05 02:57:15;;;;;;;3.53;3.42;;;;;;;;;;5015653;28;20046;-94
2023/04/05 02:59:41;;;;;;;2.72;2.63;;;;;;;;;;5015570;28;20053;-95
2023/04/05 03:02:08;;;;;;;2.60;2.50;;;;;;;;;;5016043;28;20119;-94
2023/04/05 03:04:35;;;;;;;2.78;2.67;;;;;;;;;;5015114;28;20046;-95
2023/04/05 03:07:03;;;;;;;2.40;2.30;;;;;;;;;;5014985;28;20050;-94
2023/04/05 03:09:32;;;;;;;2.80;2.60;;;;;;;;;;5015726;28;20050;-94
2023/04/05 03:12:00;;;;;;;2.53;2.42;;;;;;;;;;5016252;28;20057;-96
2023/04/05 03:14:28;;;;;;;2.42;2.28;;;;;;;;;;5015793;28;20057;-94
2023/04/05 03:16:54;;;;;;;3.40;3.30;;;;;;;;;;5018383;28;20112;-95
2023/04/05 03:19:21;;;;;;;3.63;3.45;;;;;;;;;;5018959;28;20053;-95
2023/04/05 03:21:48;;;;;;;2.95;2.85;;;;;;;;;;5028029;28;20067;-95
2023/04/05 03:24:14;;;;;;;2.90;2.80;;;;;;;;;;5037667;28;20096;-95
2023/04/05 03:26:41;;;;;;;4.35;4.15;;;;;;;;;;5038372;28;20093;-96
2023/04/05 03:29:08;;;;;;;2.58;2.47;;;;;;;;;;5038507;28;20042;-95
2023/04/05 03:31:36;;;;;;;3.33;3.20;;;;;;;;;;5038693;28;20053;-94
2023/04/05 03:34:02;;;;;;;4.28;4.07;;;;;;;;;;5035541;28;20054;-94
2023/04/05 03:36:29;;;;;;;3.35;3.20;;;;;;;;;;5018337;28;20057;-94
2023/04/05 03:38:56;;;;;;;5.25;5.03;;;;;;;;;;5018858;28;20449;-95
2023/04/05 03:41:22;;;;;;;2.17;2.08;;;;;;;;;;5018611;28;20564;-95
2023/04/05 03:43:49;;;;;;;4.03;3.83;;;;;;;;;;5018772;28;20080;-94
2023/04/05 03:46:16;;;;;;;2.30;2.20;;;;;;;;;;5018308;28;20046;-96
2023/04/05 03:48:44;;;;;;;3.95;3.65;;;;;;;;;;5018196;28;20050;-94
2023/04/05 03:51:10;;;;;;;3.25;3.15;;;;;;;;;;5018144;28;20108;-94
2023/04/05 03:53:37;;;;;;;3.22;3.13;;;;;;;;;;5017606;28;20494;-95
2023/04/05 03:56:03;;;;;;;4.60;4.40;;;;;;;;;;5018085;28;20441;-94
2023/04/05 03:58:30;;;;;;;5.40;5.10;;;;;;;;;;5025907;28;20049;-94
2023/04/05 04:00:57;;;;;;;3.33;3.22;;;;;;;;;;5037685;28;20053;-94
2023/04/05 04:03:24;;;;;;;4.20;3.90;;;;;;;;;;5039233;28;20107;-95
2023/04/05 04:05:52;;;;;;;3.90;3.70;;;;;;;;;;5060814;28;20053;-95
2023/04/05 04:08:19;;;;;;;3.83;3.60;;;;;;;;;;5057397;28;20455;-94
2023/04/05 04:10:46;;;;;;;3.15;3.05;;;;;;;;;;5057277;28;20131;-93
2023/04/05 04:13:12;;;;;;;3.45;3.25;;;;;;;;;;5057116;28;20044;-93
2023/04/05 04:15:39;;;;;;;3.10;3.00;;;;;;;;;;5057671;28;20052;-93
2023/04/05 04:18:07;;;;;;;2.05;1.95;;;;;;;;;;5058355;28;20053;-96
2023/04/05 04:20:34;;;;;;;5.60;5.40;;;;;;;;;;5060984;28;20044;-96
2023/04/05 04:23:02;;;;;;;2.55;2.45;;;;;;;;;;5062114;28;20067;-93
2023/04/05 04:25:29;;;;;;;4.97;4.75;;;;;;;;;;5060603;28;20119;-95
2023/04/05 04:27:56;;;;;;;5.35;5.15;;;;;;;;;;5058502;28;20053;-95
2023/04/05 04:30:24;;;;;;;4.28;4.07;;;;;;;;;;5054841;28;20049;-94
2023/04/05 04:32:53;;;;;;;6.00;5.72;;;;;;;;;;5043704;28;20053;-95
2023/04/05 04:35:23;;;;;;;3.35;3.25;;;;;;;;;;5034301;28;20042;-94
2023/04/05 04:37:52;;;;;;;2.92;2.83;;;;;;;;;;5018749;28;20045;-94
2023/04/05 04:40:20;;;;;;;5.35;4.95;;;;;;;;;;5019303;28;20137;-93
2023/04/05 04:42:46;;;;;;;3.33;3.20;;;;;;;;;;5018680;28;20054;-94
2023/04/05 04:45:16;;;;;;;4.55;4.35;;;;;;;;;;5017357;28;20096;-94
2023/04/05 04:47:43;;;;;;;2.97;2.85;;;;;;;;;;5020565;28;20509;-95
2023/04/05 04:50:10;;;;;;;2.80;2.70;;;;;;;;;;5018496;28;20505;-94
2023/04/05 04:52:37;;;;;;;4.93;4.72;;;;;;;;;;5019064;28;20065;-94
2023/04/05 04:55:04;;;;;;;3.17;3.08;;;;;;;;;;5021102;28;20049;-94
2023/04/05 04:57:32;;;;;;;3.47;3.35;;;;;;;;;;5038076;28;20088;-94
2023/04/05 04:59:59;;;;;;;3.15;2.95;;;;;;;;;;5039206;28;20054;-93
2023/04/05 05:02:25;;;;;;;3.45;3.33;;;;;;;;;;5037260;28;20053;-93
2023/04/05 05:04:52;;;;;;;4.07;2.83;;;;;;;;;;5037680;28;20103;-94
2023/04/05 05:07:19;;;;;;;4.28;3.85;;;;;;;;;;5038919;28;20065;-95
2023/04/05 05:09:46;;;;;;;4.00;3.80;;;;;;;;;;5038111;28;20084;-95
2023/04/05 05:12:13;;;;;;;3.60;3.47;;;;;;;;;;5037643;28;20053;-95
2023/04/05 05:14:41;;;;;;;7.63;7.20;;;;;;;;;;5037338;28;20567;-94
2023/04/05 05:17:08;;;;;;;3.05;2.95;;;;;;;;;;5036880;28;20116;-94
2023/04/05 05:19:34;;;;;;;2.92;2.83;;;;;;;;;;5036374;28;20061;-93
2023/04/05 05:22:01;;;;;;;5.20;4.90;;;;;;;;;;5017793;28;20057;-95
2023/04/05 05:24:27;;;;;;;3.97;3.78;;;;;;;;;;5015960;28;20483;-95
2023/04/05 05:26:54;;;;;;;3.65;3.42;;;;;;;;;;5034642;28;20053;-95
2023/04/05 05:29:21;;;;;;;3.33;3.03;;;;;;;;;;5040017;28;20140;-94
2023/04/05 05:31:49;;;;;;;2.72;2.47;;;;;;;;;;5025400;28;20060;-94
2023/04/05 05:34:16;;;;;;;3.65;3.45;;;;;;;;;;5017520;28;20441;-95
2023/04/05 05:36:42;;;;;;;2.70;2.60;;;;;;;;;;5018095;28;20065;-94
2023/04/05 05:39:09;;;;;;;2.88;2.78;;;;;;;;;;5017648;28;20468;-94
2023/04/05 05:41:36;;;;;;;4.50;4.10;;;;;;;;;;5019318;28;20053;-93
2023/04/05 05:44:02;;;;;;;4.03;3.83;;;;;;;;;;5018622;28;20138;-95
2023/04/05 05:46:29;;;;;;;6.78;6.50;;;;;;;;;;5016281;28;20045;-94
2023/04/05 05:48:57;;;;;;;2.40;2.30;;;;;;;;;;5017310;28;20050;-93
2023/04/05 05:51:23;;;;;;;3.22;3.10;;;;;;;;;;5018869;28;20053;-95
2023/04/05 05:53:50;;;;;;;2.95;2.75;;;;;;;;;;5019627;28;20056;-94
2023/04/05 05:56:16;;;;;;;3.63;3.42;;;;;;;;;;5059590;28;20048;-93
2023/04/05 05:58:43;;;;;;;2.45;2.35;;;;;;;;;;5056482;28;20056;-94
2023/04/05 06:01:10;;;;;;;2.88;2.78;;;;;;;;;;5058495;28;20110;-94
2023/04/05 06:03:37;;;;;;;2.42;2.33;;;;;;;;;;5058187;28;20055;-95
2023/04/05 06:06:10;;;;;;;3.95;3.75;;;;;;;;;;5059114;28;20041;-95
2023/04/05 06:08:36;;;;;;;4.05;3.85;;;;;;;;;;5056870;28;20059;-95
2023/04/05 06:11:03;;;;;;;3.63;3.42;;;;;;;;;;5059089;28;20059;-95
2023/04/05 06:13:30;;;;;;;2.28;2.17;;;;;;;;;;5056786;28;20045;-95
2023/04/05 06:15:56;;;;;;;3.03;2.83;;;;;;;;;;5059050;28;20052;-94
2023/04/05 06:18:23;;;;;;;4.45;4.25;;;;;;;;;;5061192;28;20053;-96
2023/04/05 06:20:50;;;;;;;2.38;2.28;;;;;;;;;;5061338;28;20045;-95
2023/04/05 06:23:18;;;;;;;3.05;2.85;;;;;;;;;;5044151;28;20052;-93
2023/04/05 06:25:44;;;;;;;5.43;5.07;;;;;;;;;;5040848;28;20382;-95
2023/04/05 06:28:11;;;;;;;3.42;3.33;;;;;;;;;;5043822;28;20049;-95
2023/04/05 06:30:38;;;;;;;4.65;4.35;;;;;;;;;;5044289;28;20414;-96
2023/04/05 06:33:04;;;;;;;1.65;1.58;;;;;;;;;;5044239;28;20050;-96
2023/04/05 06:35:32;;;;;;;3.10;3.00;;;;;;;;;;5044087;28;20064;-95
2023/04/05 06:37:58;;;;;;;2.97;2.88;;;;;;;;;;5040534;28;20053;-96
2023/04/05 06:40:26;;;;;;;3.42;3.22;;;;;;;;;;5044702;28;20084;-94
2023/04/05 06:42:53;;;;;;;3.45;2.80;;;;;;;;;;5044894;28;20065;-95
2023/04/05 06:45:20;;;;;;;2.38;2.28;;;;;;;;;;5043736;28;20045;-94
2023/04/05 06:47:46;;;;;;;5.38;5.18;;;;;;;;;;5017221;28;20050;-94
2023/04/05 06:50:13;;;;;;;4.22;4.03;;;;;;;;;;5016123;28;20116;-93
2023/04/05 06:52:39;;;;;;;3.90;3.70;;;;;;;;;;5040816;28;20052;-95
2023/04/05 06:55:07;;;;;;;2.47;2.38;;;;;;;;;;5045226;28;20053;-95
2023/04/05 06:57:35;;;;;;;3.05;2.92;;;;;;;;;;5039279;28;20064;-94
2023/04/05 07:00:07;;;;;;;3.22;3.03;;;;;;;;;;5039835;28;20485;-95
2023/04/05 07:02:34;;;;;;;4.32;4.10;;;;;;;;;;5050386;28;20476;-95
2023/04/05 07:05:04;;;;;;;3.85;3.65;;;;;;;;;;5059176;28;20053;-95
2023/04/05 07:07:31;;;;;;;4.10;3.90;;;;;;;;;;5052851;28;20053;-95
2023/04/05 07:09:57;;;;;;;3.67;3.47;;;;;;;;;;5040317;28;20512;-95
2023/04/05 07:12:24;;;;;;;4.53;4.32;;;;;;;;;;5039349;28;20054;-94
2023/04/05 07:14:52;;;;;;;5.57;5.28;;;;;;;;;;5040897;28;20598;-94
2023/04/05 07:17:19;;;;;;;4.97;4.78;;;;;;;;;;5039807;28;20056;-94
2023/04/05 07:19:45;;;;;;;4.78;4.10;;;;;;;;;;5040392;28;20554;-94
2023/04/05 07:22:12;;;;;;;6.43;5.30;;;;;;;;;;5040559;28;20060;-95
2023/04/05 07:24:39;;;;;;;3.80;3.60;;;;;;;;;;5039488;28;20439;-95
2023/04/05 07:27:05;;;;;;;5.15;4.95;;;;;;;;;;5041039;28;20045;-94
2023/04/05 07:29:33;;;;;;;3.40;3.30;;;;;;;;;;5040833;28;20049;-94
2023/04/05 07:32:01;;;;;;;4.22;4.03;;;;;;;;;;5044694;28;20058;-96
2023/04/05 07:34:28;;;;;;;5.57;5.38;;;;;;;;;;5042731;28;20409;-95
2023/04/05 07:36:54;;;;;;;5.28;5.07;;;;;;;;;;5038641;28;20489;-94
2023/04/05 07:39:21;;;;;;;5.18;4.97;;;;;;;;;;5040507;28;20083;-94
2023/04/05 07:41:48;;;;;;;4.72;4.53;;;;;;;;;;5041109;28;20045;-94
2023/04/05 07:44:14;;;;;;;4.53;4.32;;;;;;;;;;5041085;28;20370;-95
2023/04/05 07:46:43;;;;;;;3.38;3.28;;;;;;;;;;5040384;28;20045;-94
2023/04/05 07:49:12;;;;;;;3.35;3.17;;;;;;;;;;5055072;28;20433;-93
2023/04/05 07:51:38;;;;;;;1.92;1.83;;;;;;;;;;5045616;28;20053;-93
2023/04/05 07:54:05;;;;;;;3.17;3.08;;;;;;;;;;5032531;28;20053;-93
2023/04/05 07:56:32;;;;;;;3.83;3.63;;;;;;;;;;5032639;28;20130;-93
2023/04/05 07:58:58;;;;;;;3.72;3.55;;;;;;;;;;5038292;28;20072;-94
2023/04/05 08:01:26;;;;;;;4.15;3.95;;;;;;;;;;5025504;28;20053;-93
2023/04/05 08:03:53;;;;;;;2.45;2.35;;;;;;;;;;5038238;28;20132;-93
2023/04/05 08:06:21;;;;;;;6.55;6.25;;;;;;;;;;5038377;28;20057;-93
2023/04/05 08:08:47;;;;;;;4.28;4.07;;;;;;;;;;5031332;28;20049;-93
2023/04/05 08:11:14;;;;;;;4.10;3.90;;;;;;;;;;5039096;28;20055;-95
2023/04/05 08:13:41;;;;;;;4.45;4.25;;;;;;;;;;5036988;28;20489;-92
2023/04/05 08:16:08;;;;;;;5.10;4.75;;;;;;;;;;5029129;28;20348;-93
2023/04/05 08:18:35;;;;;;;3.28;3.17;;;;;;;;;;5037697;28;20049;-94
2023/04/05 08:21:01;;;;;;;4.55;4.35;;;;;;;;;;5032290;28;20552;-93
2023/04/05 08:23:30;;;;;;;5.47;5.18;;;;;;;;;;5032589;28;20049;-96
2023/04/05 08:25:56;;;;;;;4.78;4.57;;;;;;;;;;5024198;28;20064;-93
2023/04/05 08:28:23;;;;;;;6.38;4.70;;;;;;;;;;5024371;28;20056;-93
2023/04/05 08:30:53;;;;;;;3.85;3.65;;;;;;;;;;5034298;28;20053;-93
2023/04/05 08:33:19;;;;;;;5.50;5.10;;;;;;;;;;5024461;28;20049;-96
2023/04/05 08:35:46;;;;;;;4.35;4.15;;;;;;;;;;5031378;28;20068;-93
2023/04/05 08:38:13;;;;;;;4.65;4.32;;;;;;;;;;5029732;28;20056;-93
2023/04/05 08:40:42;;;;;;;4.97;4.78;;;;;;;;;;5026617;28;20053;-93
2023/04/05 08:43:10;;;;;;;5.53;5.32;;;;;;;;;;5026091;28;20124;-92
2023/04/05 08:45:44;;;;;;;5.55;5.35;;;;;;;;;;5033495;28;20053;-93
2023/04/05 08:48:11;;;;;;;3.38;3.28;;;;;;;;;;5034350;28;20045;-92
2023/04/05 08:50:37;;;;;;;2.97;2.88;;;;;;;;;;5018202;28;20403;-94
2023/04/05 08:53:04;;;;;;;3.67;3.47;;;;;;;;;;5034847;28;20076;-94
2023/04/05 08:55:30;;;;;;;2.92;2.83;;;;;;;;;;5036644;28;20084;-93
2023/04/05 08:57:59;;;;;;;2.65;2.55;;;;;;;;;;5021539;28;20046;-92
2023/04/05 09:00:27;;;;;;;4.10;3.90;;;;;;;;;;5040613;28;20131;-92
2023/04/05 09:02:56;;;;;;;4.90;4.70;;;;;;;;;;5036593;28;20436;-93
2023/04/05 09:05:24;;;;;;;3.40;3.30;;;;;;;;;;5039386;28;20052;-96
2023/04/05 09:07:50;;;;;;;4.50;4.20;;;;;;;;;;5031734;28;20046;-93
2023/04/05 09:10:18;;;;;;;4.22;3.92;;;;;;;;;;5025202;28;20050;-92
2023/04/05 09:12:45;;;;;;;4.60;4.40;;;;;;;;;;5021570;28;20419;-94
2023/04/05 09:15:14;;;;;;;7.20;6.88;;;;;;;;;;5021340;28;20410;-95
2023/04/05 09:17:41;;;;;;;5.03;4.82;;;;;;;;;;5018989;28;20058;-93
2023/04/05 09:20:08;;;;;;;4.30;4.10;;;;;;;;;;5020016;28;20060;-94
2023/04/05 09:22:42;;;;;;;3.60;3.50;;;;;;;;;;5021767;28;20049;-94
2023/04/05 09:25:09;;;;;;;3.72;3.60;;;;;;;;;;5018988;28;20524;-93
2023/04/05 09:27:36;;;;;;;4.53;4.32;;;;;;;;;;5031329;28;20052;-92
2023/04/05 09:30:20;;;;;;;4.40;4.20;;;;;;;;;;5039932;28;20089;-94
2023/04/05 09:32:50;;;;;;;4.43;4.22;;;;;;;;;;5031631;28;20072;-95
2023/04/05 09:35:18;;;;;;;5.28;5.07;;;;;;;;;;5019191;28;20046;-95
2023/04/05 09:37:52;;;;;;;3.67;3.53;;;;;;;;;;5021340;28;20054;-94
2023/04/05 09:40:18;;;;;;;4.72;4.53;;;;;;;;;;5021368;28;20109;-93
2023/04/05 09:42:45;;;;;;;3.72;3.58;;;;;;;;;;5022972;28;20046;-93
2023/04/05 09:45:12;;;;;;;4.32;4.13;;;;;;;;;;5024366;28;20069;-94
2023/04/05 09:47:40;;;;;;;7.60;7.30;;;;;;;;;;5021313;28;20457;-94
2023/04/05 09:50:19;;;;;;;4.68;4.28;;;;;;;;;;5018113;28;20081;-94
2023/04/05 09:52:46;;;;;;;6.55;3.85;;;;;;;;;;5027862;28;20045;-94
2023/04/05 09:55:12;;;;;;;4.40;4.20;;;;;;;;;;5041675;28;20053;-93
2023/04/05 09:57:40;;;;;;;7.38;7.05;;;;;;;;;;5032018;28;20410;-93
2023/04/05 10:00:09;;;;;;;4.63;4.43;;;;;;;;;;5020177;28;20060;-93
2023/04/05 10:02:36;;;;;;;2.88;2.78;;;;;;;;;;5018834;28;20100;-95
2023/04/05 10:05:06;;;;;;;4.47;4.28;;;;;;;;;;5018925;28;20050;-95
2023/04/05 10:07:34;;;;;;;6.10;5.85;;;;;;;;;;5023082;28;20069;-94
2023/04/05 10:10:02;;;;;;;3.90;3.70;;;;;;;;;;5040524;28;20056;-94
2023/04/05 10:12:29;;;;;;;5.57;5.38;;;;;;;;;;5034607;28;20057;-94
2023/04/05 10:14:55;;;;;;;7.78;7.47;;;;;;;;;;5021038;28;20391;-95
2023/04/05 10:17:24;;;;;;;4.65;4.43;;;;;;;;;;5022396;28;20048;-93
2023/04/05 10:19:55;;;;;;;6.53;6.22;;;;;;;;;;5038043;28;20077;-94
2023/04/05 10:22:24;;;;;;;5.90;5.70;;;;;;;;;;5036693;28;20041;-93
2023/04/05 10:24:55;;;;;;;8.07;7.68;;;;;;;;;;5038525;28;20088;-93
2023/04/05 10:27:23;;;;;;;5.82;5.60;;;;;;;;;;5042147;28;20041;-94
2023/04/05 10:29:51;;;;;;;6.30;6.00;;;;;;;;;;5044985;28;20052;-94
2023/04/05 10:32:23;;;;;;;3.67;3.50;;;;;;;;;;5043543;28;20037;-93
2023/04/05 10:34:53;;;;;;;5.47;5.28;;;;;;;;;;5043676;28;20049;-94
2023/04/05 10:37:23;;;;;;;5.63;5.32;;;;;;;;;;5056794;28;20045;-94
2023/04/05 10:39:50;;;;;;;7.03;6.72;;;;;;;;;;5045050;28;20049;-94
2023/04/05 10:42:20;;;;;;;6.25;6.00;;;;;;;;;;5059781;28;20053;-93
2023/04/05 10:44:50;;;;;;;4.97;4.78;;;;;;;;;;5063379;28;20049;-95
2023/04/05 10:47:19;;;;;;;4.97;4.78;;;;;;;;;;5063963;28;20044;-95
2023/04/05 10:49:47;;;;;;;5.70;5.40;;;;;;;;;;5043427;28;20053;-95
2023/04/05 10:52:14;;;;;;;7.40;7.10;;;;;;;;;;5043123;28;20490;-94
2023/04/05 10:54:40;;;;;;;6.47;6.18;;;;;;;;;;5022656;28;20058;-94
2023/04/05 10:57:08;;;;;;;4.40;4.20;;;;;;;;;;5023469;28;20042;-94
2023/04/05 10:59:40;;;;;;;6.97;6.68;;;;;;;;;;5023485;28;20058;-94
2023/04/05 11:02:06;;;;;;;4.97;4.68;;;;;;;;;;5022179;28;20116;-94
2023/04/05 11:04:33;;;;;;;8.00;7.70;;;;;;;;;;5043606;28;20050;-93
2023/04/05 11:07:13;;;;;;;4.70;4.50;;;;;;;;;;5041852;28;20046;-96
2023/04/05 11:09:50;;;;;;;6.10;5.90;;;;;;;;;;5043049;28;20053;-94
2023/04/05 11:12:16;;;;;;;4.90;4.70;;;;;;;;;;5042749;28;20045;-93
2023/04/05 11:14:44;;;;;;;6.65;6.35;;;;;;;;;;5042034;28;20112;-93
2023/04/05 11:17:24;;;;;;;5.93;5.63;;;;;;;;;;5042520;28;20521;-93
2023/04/05 11:19:54;;;;;;;5.47;5.28;;;;;;;;;;5021270;28;20046;-95
2023/04/05 11:22:27;;;;;;;6.03;5.82;;;;;;;;;;5021346;28;20108;-94
2023/04/05 11:24:56;;;;;;;8.00;7.70;;;;;;;;;;5020425;28;20046;-94
2023/04/05 11:27:25;;;;;;;4.38;4.18;;;;;;;;;;5018260;28;20046;-94
2023/04/05 11:29:53;;;;;;;6.88;6.55;;;;;;;;;;5021689;28;20046;-93
2023/04/05 11:32:20;;;;;;;6.47;6.18;;;;;;;;;;5022518;28;20104;-93
2023/04/05 11:34:58;;;;;;;4.88;4.68;;;;;;;;;;5041362;28;20060;-93
2023/04/05 11:37:45;;;;;;;9.65;9.25;;;;;;;;;;5040871;28;20474;-92
2023/04/05 11:40:24;;;;;;;8.55;8.23;;;;;;;;;;5039573;28;20390;-93
2023/04/05 11:42:57;;;;;;;5.43;5.22;;;;;;;;;;5039530;28;20057;-93
2023/04/05 11:45:26;;;;;;;6.30;6.00;;;;;;;;;;5040477;28;20045;-95
2023/04/05 11:47:52;;;;;;;4.32;4.13;;;;;;;;;;5036099;28;20559;-93
2023/04/05 11:50:22;;;;;;;9.15;8.75;;;;;;;;;;5024467;28;20497;-93
2023/04/05 11:53:06;;;;;;;6.53;6.22;;;;;;;;;;5023542;28;20058;-95
2023/04/05 11:55:33;;;;;;;8.50;8.10;;;;;;;;;;5025160;28;20042;-93
2023/04/05 11:58:00;;;;;;;4.88;4.68;;;;;;;;;;5040572;28;20054;-93
2023/04/05 12:00:28;;;;;;;8.25;7.85;;;;;;;;;;5024643;28;20113;-94
2023/04/05 12:02:55;;;;;;;5.70;5.50;;;;;;;;;;5034750;28;20041;-94
2023/04/05 12:05:22;;;;;;;10.13;9.73;;;;;;;;;;5041164;28;20696;-93
2023/04/05 12:07:52;;;;;;;6.63;6.32;;;;;;;;;;5040977;28;20050;-93
2023/04/05 12:10:21;;;;;;;7.05;6.75;;;;;;;;;;5038914;28;20053;-94
2023/04/05 12:12:48;;;;;;;7.18;6.78;;;;;;;;;;5039872;28;20128;-92
2023/04/05 12:15:17;;;;;;;7.25;6.95;;;;;;;;;;5029815;28;20050;-92
2023/04/05 12:17:49;;;;;;;9.07;8.68;;;;;;;;;;5020727;28;20054;-92
2023/04/05 12:20:18;;;;;;;6.40;6.15;;;;;;;;;;5022025;28;20046;-93
2023/04/05 12:22:47;;;;;;;11.68;11.18;;;;;;;;;;5027023;28;20449;-93
2023/04/05 12:25:13;;;;;;;19.73;18.98;;;;;;;;;;5026423;28;20050;-93
2023/04/05 12:27:40;;;;;;;8.18;7.78;;;;;;;;;;5039774;28;20405;-93
2023/04/05 12:30:13;;;;;;;9.32;8.93;;;;;;;;;;5022953;28;20054;-93
2023/04/05 12:32:44;;;;;;;7.57;7.13;;;;;;;;;;5020225;28;20046;-94
2023/04/05 12:35:10;;;;;;;;;;;;;;;;;;5023963;28;20050;-92
2023/04/05 12:37:39;;;;;;;4.35;4.15;;;;;;;;;;5022112;28;19925;-93
2023/04/05 12:40:06;;;;;;;8.23;7.82;;;;;;;;;;5033854;28;20072;-93
2023/04/05 12:42:34;;;;;;;6.72;6.28;;;;;;;;;;5021096;28;20120;-94
2023/04/05 12:45:05;;;;;;;6.70;6.43;;;;;;;;;;5037113;28;20555;-94
2023/04/05 12:47:32;;;;;;;5.68;5.47;;;;;;;;;;5030492;28;20497;-94
2023/04/05 12:50:09;;;;;;;5.75;5.55;;;;;;;;;;5033581;28;20057;-94
2023/04/05 12:52:36;;;;;;;6.45;6.15;;;;;;;;;;5037493;28;20045;-95
2023/04/05 12:55:04;;;;;;;4.88;4.68;;;;;;;;;;5029730;28;20058;-94
2023/04/05 12:57:31;;;;;;;5.10;4.88;;;;;;;;;;5020810;28;20081;-94
2023/04/05 12:59:58;;;;;;;5.38;5.18;;;;;;;;;;5027512;28;20123;-93
2023/04/05 13:02:25;;;;;;;9.43;8.95;;;;;;;;;;5038205;28;20072;-94
2023/04/05 13:04:52;;;;;;;7.40;7.05;;;;;;;;;;5018188;28;20141;-94
2023/04/05 13:07:19;;;;;;;7.85;7.43;;;;;;;;;;5025075;28;20049;-95
2023/04/05 13:09:46;;;;;;;7.43;7.13;;;;;;;;;;5035868;28;20049;-95
2023/04/05 13:12:14;;;;;;;5.78;5.45;;;;;;;;;;5024438;28;20049;-94
2023/04/05 13:14:40;;;;;;;9.68;9.32;;;;;;;;;;5031984;28;20465;-95
2023/04/05 13:17:07;;;;;;;4.32;4.13;;;;;;;;;;5039080;28;20266;-95
2023/04/05 13:19:33;;;;;;;8.10;7.80;;;;;;;;;;5018916;28;20486;-93
2023/04/05 13:22:00;;;;;;;7.32;7.03;;;;;;;;;;5017669;28;20057;-92
2023/04/05 13:24:26;;;;;;;9.65;9.25;;;;;;;;;;5030839;28;20045;-94
2023/04/05 13:26:53;;;;;;;4.82;4.63;;;;;;;;;;5017637;28;20054;-93
2023/04/05 13:29:21;;;;;;;5.65;5.45;;;;;;;;;;5024079;28;20046;-94
2023/04/05 13:31:48;;;;;;;6.90;6.50;;;;;;;;;;5017447;28;20057;-94
2023/04/05 13:34:14;;;;;;;5.45;5.25;;;;;;;;;;5024386;28;20049;-94
2023/04/05 13:36:43;;;;;;;7.07;6.78;;;;;;;;;;5017031;28;20133;-94
2023/04/05 13:39:10;;;;;;;6.68;6.38;;;;;;;;;;5016318;28;20100;-94
2023/04/05 13:41:36;;;;;;;7.30;7.00;;;;;;;;;;5016972;28;20049;-93
2023/04/05 13:44:03;;;;;;;4.93;4.72;;;;;;;;;;5017013;28;20050;-94
2023/04/05 13:46:31;;;;;;;4.22;4.03;;;;;;;;;;5016820;28;20104;-94
2023/04/05 13:48:57;;;;;;;3.38;3.17;;;;;;;;;;5017739;28;20050;-94
2023/04/05 13:51:24;;;;;;;6.03;5.70;;;;;;;;;;5018561;28;20382;-95
2023/04/05 13:53:50;;;;;;;4.88;4.65;;;;;;;;;;5017154;28;20136;-94
2023/04/05 13:56:17;;;;;;;4.10;3.90;;;;;;;;;;5016091;28;20054;-94
2023/04/05 13:58:43;;;;;;;5.53;5.32;;;;;;;;;;5016137;28;20564;-95
2023/04/05 14:01:10;;;;;;;5.63;5.43;;;;;;;;;;5019382;28;20045;-94
2023/04/05 14:03:38;;;;;;;7.10;6.78;;;;;;;;;;5032205;28;20119;-93
2023/04/05 14:06:05;;;;;;;6.40;6.10;;;;;;;;;;5017853;28;20050;-94
2023/04/05 14:08:31;;;;;;;4.55;4.35;;;;;;;;;;5017948;28;20471;-94
2023/04/05 14:10:58;;;;;;;4.65;4.30;;;;;;;;;;5018022;28;20054;-94
2023/04/05 14:13:24;;;;;;;5.35;5.15;;;;;;;;;;5017143;28;20049;-94
2023/04/05 14:15:51;;;;;;;3.58;3.40;;;;;;;;;;5018019;28;20054;-94
2023/04/05 14:18:17;;;;;;;4.60;4.40;;;;;;;;;;5017495;28;20049;-95
2023/04/05 14:20:45;;;;;;;5.57;5.38;;;;;;;;;;5033235;28;20056;-95
2023/04/05 14:23:12;;;;;;;4.03;3.83;;;;;;;;;;5037136;28;20045;-94
2023/04/05 14:25:39;;;;;;;3.95;3.75;;;;;;;;;;5032214;28;20069;-93
2023/04/05 14:28:05;;;;;;;10.35;9.73;;;;;;;;;;5035161;28;20440;-93
2023/04/05 14:30:32;;;;;;;4.35;4.05;;;;;;;;;;5032415;28;20053;-94
2023/04/05 14:32:59;;;;;;;6.03;5.80;;;;;;;;;;5015465;28;20100;-93
2023/04/05 14:35:25;;;;;;;5.30;5.00;;;;;;;;;;5016831;28;20081;-93
2023/04/05 14:37:53;;;;;;;5.97;5.75;;;;;;;;;;5016676;28;20049;-93
2023/04/05 14:40:20;;;;;;;4.00;3.80;;;;;;;;;;5016274;28;20050;-93
2023/04/05 14:42:46;;;;;;;3.83;3.63;;;;;;;;;;5016777;28;20057;-93
2023/04/05 14:45:13;;;;;;;5.47;5.28;;;;;;;;;;5017276;28;20053;-93
2023/04/05 14:47:40;;;;;;;4.70;4.50;;;;;;;;;;5016340;28;20053;-93